Time;durP1;ratioP1;P1;durP2;ratioP2;P2;SDS_P1;SDS_P2;PMS_P1;PMS_P2;Temp;Humidity;BMP_temperature;BMP_pressure;BME280_temperature;BME280_humidity;BME280_pressure;Samples;Min_cycle;Max_cycle;Signal;HPM_P1;HPM_P2
2024/02/17 00:02:04;;;;;;;5.30;2.25;;;;;;;;;;7415401;19;19914;-83
2024/02/17 00:04:48;;;;;;;6.38;2.65;;;;;;;;;;7413359;19;19957;-83
2024/02/17 00:07:40;;;;;;;5.88;2.70;;;;;;;;;;7412543;19;19918;-83
2024/02/17 00:10:27;;;;;;;4.50;2.72;;;;;;;;;;7411827;19;19918;-83
2024/02/17 00:13:14;;;;;;;4.63;3.13;;;;;;;;;;7412397;19;19922;-83
2024/02/17 00:16:00;;;;;;;5.93;2.90;;;;;;;;;;7411207;19;19906;-83
2024/02/17 00:18:47;;;;;;;5.35;3.33;;;;;;;;;;7411281;19;19910;-83
2024/02/17 00:21:33;;;;;;;5.90;3.22;;;;;;;;;;7413327;19;20264;-83
2024/02/17 00:24:21;;;;;;;5.60;3.10;;;;;;;;;;7411552;19;19919;-83
2024/02/17 00:27:06;;;;;;;4.60;3.10;;;;;;;;;;7412328;19;19926;-83
2024/02/17 00:29:52;;;;;;;4.47;3.03;;;;;;;;;;7409303;19;19918;-83
2024/02/17 00:32:39;;;;;;;5.90;2.97;;;;;;;;;;7394030;19;20483;-83
2024/02/17 00:35:25;;;;;;;5.50;3.42;;;;;;;;;;7396777;19;19956;-83
2024/02/17 00:38:12;;;;;;;5.22;3.05;;;;;;;;;;7409966;19;19982;-83
2024/02/17 00:41:02;;;;;;;6.05;3.33;;;;;;;;;;7409497;19;20543;-83
2024/02/17 00:43:49;;;;;;;4.95;3.50;;;;;;;;;;7408943;19;19914;-83
2024/02/17 00:46:35;;;;;;;4.82;3.13;;;;;;;;;;7408540;19;19951;-83
2024/02/17 00:49:20;;;;;;;6.38;3.72;;;;;;;;;;7410748;19;19982;-83
2024/02/17 00:52:04;;;;;;;4.80;3.08;;;;;;;;;;7408472;19;19926;-83
2024/02/17 00:54:50;;;;;;;6.03;3.70;;;;;;;;;;7411921;19;19922;-83
2024/02/17 00:57:39;;;;;;;5.00;3.53;;;;;;;;;;7409347;19;19915;-83
2024/02/17 01:00:26;;;;;;;6.85;3.67;;;;;;;;;;7409608;19;20345;-83
2024/02/17 01:03:15;;;;;;;6.55;3.25;;;;;;;;;;7410069;19;19915;-84
2024/02/17 01:05:59;;;;;;;5.78;3.65;;;;;;;;;;7407614;19;19936;-83
2024/02/17 01:08:48;;;;;;;7.22;3.65;;;;;;;;;;7408680;19;20277;-83
2024/02/17 01:11:35;;;;;;;8.73;3.63;;;;;;;;;;7409594;19;20606;-83
2024/02/17 01:14:24;;;;;;;5.85;3.47;;;;;;;;;;7411999;19;19926;-83
2024/02/17 01:17:11;;;;;;;5.03;3.05;;;;;;;;;;7406030;19;19921;-83
2024/02/17 01:19:57;;;;;;;5.75;3.60;;;;;;;;;;7410540;19;19921;-83
2024/02/17 01:22:44;;;;;;;6.38;3.58;;;;;;;;;;7409315;19;19951;-84
2024/02/17 01:25:33;;;;;;;5.90;3.50;;;;;;;;;;7407780;19;19930;-83
2024/02/17 01:28:18;;;;;;;10.00;4.28;;;;;;;;;;7407058;19;19922;-83
2024/02/17 01:31:07;;;;;;;7.97;4.88;;;;;;;;;;7406696;19;19918;-83
2024/02/17 01:33:51;;;;;;;9.35;3.97;;;;;;;;;;7409813;19;19925;-83
2024/02/17 01:36:35;;;;;;;8.05;4.10;;;;;;;;;;7408111;19;19952;-83
2024/02/17 01:39:23;;;;;;;8.73;4.65;;;;;;;;;;7416401;19;20341;-83
2024/02/17 01:42:09;;;;;;;9.65;4.85;;;;;;;;;;7417566;19;20245;-83
2024/02/17 01:44:54;;;;;;;8.30;4.57;;;;;;;;;;7412856;19;19926;-83
2024/02/17 01:47:44;;;;;;;11.40;5.10;;;;;;;;;;7412559;19;19907;-83
2024/02/17 01:50:29;;;;;;;8.40;4.43;;;;;;;;;;7417719;19;19932;-83
2024/02/17 01:53:14;;;;;;;9.77;5.30;;;;;;;;;;7414514;19;19922;-83
2024/02/17 01:56:00;;;;;;;12.50;5.72;;;;;;;;;;7415833;19;19930;-83
2024/02/17 01:58:44;;;;;;;9.75;4.75;;;;;;;;;;7417292;19;19914;-83
2024/02/17 02:01:30;;;;;;;9.45;5.53;;;;;;;;;;7416767;19;19915;-83
2024/02/17 02:04:19;;;;;;;11.05;5.82;;;;;;;;;;7415009;19;19919;-83
2024/02/17 02:07:06;;;;;;;13.85;5.50;;;;;;;;;;7415642;19;19978;-83
2024/02/17 02:09:52;;;;;;;10.98;5.63;;;;;;;;;;7414172;19;19925;-83
2024/02/17 02:12:37;;;;;;;11.55;5.80;;;;;;;;;;7415966;19;20374;-83
2024/02/17 02:15:27;;;;;;;11.82;5.93;;;;;;;;;;7414443;19;19910;-83
2024/02/17 02:18:13;;;;;;;11.10;6.03;;;;;;;;;;7413569;19;20340;-83
2024/02/17 02:21:03;;;;;;;12.07;6.35;;;;;;;;;;7412117;19;19919;-83
2024/02/17 02:23:49;;;;;;;11.30;5.90;;;;;;;;;;7414242;19;19921;-83
2024/02/17 02:26:39;;;;;;;11.40;6.40;;;;;;;;;;7414193;19;19919;-83
2024/02/17 02:29:23;;;;;;;11.40;6.22;;;;;;;;;;7416411;19;19927;-83
2024/02/17 02:32:09;;;;;;;17.23;7.43;;;;;;;;;;7413243;19;19986;-83
2024/02/17 02:34:58;;;;;;;13.55;6.97;;;;;;;;;;7414092;19;19933;-83
2024/02/17 02:37:45;;;;;;;14.50;6.03;;;;;;;;;;7416061;19;19923;-83
2024/02/17 02:40:29;;;;;;;13.40;6.60;;;;;;;;;;7414810;19;19974;-83
2024/02/17 02:43:16;;;;;;;13.10;6.45;;;;;;;;;;7413713;19;19914;-83
2024/02/17 02:46:05;;;;;;;13.68;7.10;;;;;;;;;;7411442;19;19930;-83
2024/02/17 02:48:52;;;;;;;12.80;6.72;;;;;;;;;;7413535;19;19911;-83
2024/02/17 02:51:36;;;;;;;14.07;7.13;;;;;;;;;;7413558;19;19931;-83
2024/02/17 02:54:21;;;;;;;15.75;7.25;;;;;;;;;;7414658;19;19919;-83
2024/02/17 02:57:09;;;;;;;18.98;6.97;;;;;;;;;;7413971;19;19914;-83
2024/02/17 02:59:58;;;;;;;14.50;6.53;;;;;;;;;;7412899;19;19914;-83
2024/02/17 03:02:42;;;;;;;15.48;7.53;;;;;;;;;;7413111;19;19922;-83
2024/02/17 03:05:27;;;;;;;15.90;7.40;;;;;;;;;;7412860;19;19938;-83
2024/02/17 03:08:14;;;;;;;12.32;6.18;;;;;;;;;;7413141;19;19936;-83
2024/02/17 03:11:03;;;;;;;12.82;6.05;;;;;;;;;;7414691;19;19915;-83
2024/02/17 03:13:47;;;;;;;12.57;6.57;;;;;;;;;;7412220;19;19911;-83
2024/02/17 03:16:39;;;;;;;10.43;5.60;;;;;;;;;;7413481;19;19934;-83
2024/02/17 03:19:26;;;;;;;13.55;6.70;;;;;;;;;;7413838;19;19942;-83
2024/02/17 03:22:12;;;;;;;12.68;5.95;;;;;;;;;;7412794;19;19918;-83
2024/02/17 03:24:59;;;;;;;17.25;7.28;;;;;;;;;;7412749;19;19915;-83
2024/02/17 03:27:46;;;;;;;10.10;5.40;;;;;;;;;;7411165;19;19935;-83
2024/02/17 03:30:33;;;;;;;13.95;6.20;;;;;;;;;;7413084;19;19969;-83
2024/02/17 03:33:22;;;;;;;16.67;6.80;;;;;;;;;;7411785;19;19922;-83
2024/02/17 03:36:09;;;;;;;15.10;6.07;;;;;;;;;;7408065;19;19921;-83
2024/02/17 03:38:54;;;;;;;18.30;7.30;;;;;;;;;;7414962;19;19926;-83
2024/02/17 03:41:41;;;;;;;14.32;6.53;;;;;;;;;;7413460;19;19923;-82
2024/02/17 03:44:23;;;;;;;14.45;6.45;;;;;;;;;;7411179;19;19918;-84
2024/02/17 03:47:11;;;;;;;17.33;7.50;;;;;;;;;;7410504;19;19919;-84
2024/02/17 03:49:58;;;;;;;14.45;6.85;;;;;;;;;;7413217;19;19926;-84
2024/02/17 03:52:42;;;;;;;16.50;6.75;;;;;;;;;;7410114;19;20343;-84
2024/02/17 03:55:26;;;;;;;15.23;6.00;;;;;;;;;;7412069;19;19926;-84
2024/02/17 03:58:13;;;;;;;11.13;4.88;;;;;;;;;;7409325;19;19923;-84
2024/02/17 04:00:57;;;;;;;12.73;5.95;;;;;;;;;;7413208;19;19945;-84
2024/02/17 04:03:44;;;;;;;14.30;6.25;;;;;;;;;;7414329;19;19919;-84
2024/02/17 04:06:31;;;;;;;12.40;5.45;;;;;;;;;;7412836;19;19914;-84
2024/02/17 04:09:20;;;;;;;15.27;5.32;;;;;;;;;;7416450;19;20336;-84
2024/02/17 04:12:05;;;;;;;10.02;3.90;;;;;;;;;;7414740;19;19918;-84
2024/02/17 04:14:49;;;;;;;7.72;3.75;;;;;;;;;;7415220;19;19926;-84
2024/02/17 04:17:38;;;;;;;8.05;3.47;;;;;;;;;;7413621;19;19914;-84
2024/02/17 04:20:23;;;;;;;12.95;5.15;;;;;;;;;;7415914;19;19914;-84
2024/02/17 04:23:10;;;;;;;14.90;4.28;;;;;;;;;;7413881;19;20368;-84
2024/02/17 04:25:59;;;;;;;11.25;4.18;;;;;;;;;;7416306;19;19919;-84
2024/02/17 04:28:46;;;;;;;9.95;3.60;;;;;;;;;;7416546;19;19933;-84
2024/02/17 04:31:33;;;;;;;10.27;4.78;;;;;;;;;;7412485;19;19919;-84
2024/02/17 04:34:19;;;;;;;12.88;5.35;;;;;;;;;;7413938;19;19947;-84
2024/02/17 04:37:04;;;;;;;10.23;4.35;;;;;;;;;;7411958;19;19918;-84
2024/02/17 04:39:53;;;;;;;11.40;4.13;;;;;;;;;;7413297;19;19918;-84
2024/02/17 04:42:40;;;;;;;11.35;4.70;;;;;;;;;;7415945;19;20254;-84
2024/02/17 04:45:29;;;;;;;9.95;4.82;;;;;;;;;;7422988;19;19964;-84
2024/02/17 04:48:16;;;;;;;15.82;6.53;;;;;;;;;;7415571;19;19910;-84
2024/02/17 04:51:00;;;;;;;11.10;5.10;;;;;;;;;;7412453;19;19945;-84
2024/02/17 04:53:44;;;;;;;10.57;4.50;;;;;;;;;;7412017;19;19933;-84
2024/02/17 04:56:31;;;;;;;11.23;4.45;;;;;;;;;;7414165;19;19952;-84
2024/02/17 04:59:18;;;;;;;13.07;6.18;;;;;;;;;;7409250;19;19917;-84
2024/02/17 05:02:05;;;;;;;15.27;6.00;;;;;;;;;;7411480;19;20317;-84
2024/02/17 05:04:49;;;;;;;11.57;4.63;;;;;;;;;;7413391;19;19911;-84
2024/02/17 05:07:38;;;;;;;12.93;4.70;;;;;;;;;;7410630;19;19933;-84
2024/02/17 05:10:24;;;;;;;10.07;4.35;;;;;;;;;;7412081;19;19926;-84
2024/02/17 05:13:11;;;;;;;10.77;4.57;;;;;;;;;;7411989;19;20515;-84
2024/02/17 05:15:58;;;;;;;11.75;5.55;;;;;;;;;;7413741;19;19910;-84
2024/02/17 05:18:42;;;;;;;14.73;5.35;;;;;;;;;;7419839;19;19938;-84
2024/02/17 05:21:28;;;;;;;18.13;7.05;;;;;;;;;;7415782;19;19929;-84
2024/02/17 05:24:13;;;;;;;16.63;6.40;;;;;;;;;;7414465;19;20333;-84
2024/02/17 05:26:57;;;;;;;16.17;6.05;;;;;;;;;;7418403;19;19986;-84
2024/02/17 05:29:46;;;;;;;15.18;5.78;;;;;;;;;;7417703;19;19919;-84
2024/02/17 05:32:35;;;;;;;13.02;5.47;;;;;;;;;;7428730;19;19911;-84
2024/02/17 05:35:20;;;;;;;14.40;5.78;;;;;;;;;;7427556;19;19919;-83
2024/02/17 05:38:04;;;;;;;13.35;5.88;;;;;;;;;;7426593;19;19923;-83
2024/02/17 05:40:48;;;;;;;13.63;5.18;;;;;;;;;;7428130;19;20840;-84
2024/02/17 05:43:35;;;;;;;14.77;6.22;;;;;;;;;;7422427;19;19924;-84
2024/02/17 05:46:23;;;;;;;15.63;6.20;;;;;;;;;;7419246;19;19921;-84
2024/02/17 05:49:08;;;;;;;18.23;6.32;;;;;;;;;;7421631;19;19951;-84
2024/02/17 05:51:56;;;;;;;17.50;6.68;;;;;;;;;;7417408;19;19919;-83
2024/02/17 05:54:40;;;;;;;13.23;5.40;;;;;;;;;;7413137;19;19978;-83
2024/02/17 05:57:24;;;;;;;11.18;5.72;;;;;;;;;;7417352;19;19925;-83
2024/02/17 06:00:12;;;;;;;15.20;5.65;;;;;;;;;;7414602;19;20716;-83
2024/02/17 06:03:01;;;;;;;14.25;5.05;;;;;;;;;;7416975;19;19918;-83
2024/02/17 06:05:48;;;;;;;14.20;5.50;;;;;;;;;;7413884;19;19919;-83
2024/02/17 06:08:34;;;;;;;14.45;5.40;;;;;;;;;;7417752;19;20293;-83
2024/02/17 06:11:19;;;;;;;38.30;6.55;;;;;;;;;;7412965;19;19926;-83
2024/02/17 06:14:06;;;;;;;11.98;5.00;;;;;;;;;;7412424;19;19915;-83
2024/02/17 06:16:50;;;;;;;13.57;5.25;;;;;;;;;;7409302;19;20513;-83
2024/02/17 06:22:36;;;;;;;10.48;4.65;;;;;;;;;;7414157;19;19923;-83
2024/02/17 06:25:22;;;;;;;13.65;5.93;;;;;;;;;;7410072;19;19945;-83
2024/02/17 06:28:07;;;;;;;15.25;4.00;;;;;;;;;;7409555;19;19919;-83
2024/02/17 06:30:53;;;;;;;9.82;4.10;;;;;;;;;;7407931;19;19915;-83
2024/02/17 06:33:37;;;;;;;12.10;4.30;;;;;;;;;;7411488;19;21276;-83
2024/02/17 06:36:24;;;;;;;11.07;4.82;;;;;;;;;;7413405;19;19918;-83
2024/02/17 06:39:11;;;;;;;14.85;4.28;;;;;;;;;;7415718;19;19923;-83
2024/02/17 06:41:57;;;;;;;15.30;4.78;;;;;;;;;;7411581;19;20338;-85
2024/02/17 06:44:44;;;;;;;16.95;4.53;;;;;;;;;;7413548;19;19922;-82
2024/02/17 06:47:30;;;;;;;9.60;3.85;;;;;;;;;;7411514;19;20001;-82
2024/02/17 06:50:15;;;;;;;13.63;4.35;;;;;;;;;;7412155;19;19967;-82
2024/02/17 06:53:04;;;;;;;12.05;4.20;;;;;;;;;;7410340;19;19918;-82
2024/02/17 06:55:48;;;;;;;12.45;5.15;;;;;;;;;;7412975;19;19922;-82
2024/02/17 06:58:35;;;;;;;14.23;5.22;;;;;;;;;;7410896;19;19918;-82
2024/02/17 07:01:22;;;;;;;16.80;5.10;;;;;;;;;;7411821;19;19919;-82
2024/02/17 07:04:08;;;;;;;16.40;5.05;;;;;;;;;;7409330;19;19929;-82
2024/02/17 07:06:57;;;;;;;14.02;4.78;;;;;;;;;;7410057;19;19910;-82
2024/02/17 07:09:44;;;;;;;16.83;5.50;;;;;;;;;;7411715;19;20010;-82
2024/02/17 07:12:34;;;;;;;16.85;5.72;;;;;;;;;;7410475;19;19915;-82
2024/02/17 07:15:18;;;;;;;15.65;5.93;;;;;;;;;;7410326;19;19915;-82
2024/02/17 07:18:05;;;;;;;18.90;5.90;;;;;;;;;;7409451;19;19922;-82
2024/02/17 07:20:52;;;;;;;17.90;6.40;;;;;;;;;;7413023;19;19919;-82
2024/02/17 07:23:36;;;;;;;20.88;6.47;;;;;;;;;;7400254;19;20258;-82
2024/02/17 07:26:28;;;;;;;27.13;6.75;;;;;;;;;;7409852;19;19937;-82
2024/02/17 07:29:17;;;;;;;22.52;6.32;;;;;;;;;;7408972;19;19906;-82
2024/02/17 07:32:03;;;;;;;41.95;7.93;;;;;;;;;;7412591;19;19918;-82
2024/02/17 07:34:50;;;;;;;17.30;5.70;;;;;;;;;;7408675;19;19910;-82
2024/02/17 07:37:34;;;;;;;30.73;6.75;;;;;;;;;;7410525;19;19947;-82
2024/02/17 07:40:18;;;;;;;26.35;5.90;;;;;;;;;;7414221;19;19930;-82
2024/02/17 07:43:05;;;;;;;24.52;6.43;;;;;;;;;;7411701;19;19927;-82
2024/02/17 07:45:52;;;;;;;32.97;6.72;;;;;;;;;;7412147;19;19942;-82
2024/02/17 07:48:39;;;;;;;26.80;5.95;;;;;;;;;;7410115;19;20018;-82
2024/02/17 07:51:25;;;;;;;34.75;6.90;;;;;;;;;;7412691;19;19918;-82
2024/02/17 07:54:10;;;;;;;32.53;7.53;;;;;;;;;;7410731;19;19919;-82
2024/02/17 07:56:54;;;;;;;20.80;7.50;;;;;;;;;;7413718;19;19915;-83
2024/02/17 07:59:43;;;;;;;21.20;6.85;;;;;;;;;;7409559;19;19948;-83
2024/02/17 08:02:32;;;;;;;16.48;6.75;;;;;;;;;;7414307;19;19918;-83
2024/02/17 08:05:19;;;;;;;25.42;6.88;;;;;;;;;;7412377;19;19919;-83
2024/02/17 08:08:03;;;;;;;17.35;6.53;;;;;;;;;;7411072;19;19923;-82
2024/02/17 08:10:48;;;;;;;23.13;7.88;;;;;;;;;;7412358;19;19922;-83
2024/02/17 08:13:32;;;;;;;19.35;8.05;;;;;;;;;;7412010;19;19910;-83
2024/02/17 08:16:19;;;;;;;20.63;8.38;;;;;;;;;;7413248;19;19977;-83
2024/02/17 08:19:03;;;;;;;20.70;7.55;;;;;;;;;;7407834;19;20013;-83
2024/02/17 08:21:48;;;;;;;20.42;7.00;;;;;;;;;;7406690;19;19919;-83
2024/02/17 08:24:37;;;;;;;18.10;8.10;;;;;;;;;;7401550;19;21858;-83
2024/02/17 08:27:23;;;;;;;18.77;8.35;;;;;;;;;;7401715;19;19919;-83
2024/02/17 08:30:10;;;;;;;21.60;9.77;;;;;;;;;;7406991;19;19922;-83
2024/02/17 08:32:57;;;;;;;16.35;9.32;;;;;;;;;;7412860;19;19911;-83
2024/02/17 08:35:41;;;;;;;15.07;7.45;;;;;;;;;;7406943;19;19949;-83
2024/02/17 08:38:28;;;;;;;14.35;6.80;;;;;;;;;;7410389;19;19930;-83
2024/02/17 08:41:19;;;;;;;14.60;7.07;;;;;;;;;;7405795;19;19918;-84
2024/02/17 08:44:03;;;;;;;16.17;8.15;;;;;;;;;;7408126;19;19945;-84
2024/02/17 08:46:47;;;;;;;17.38;7.28;;;;;;;;;;7412706;19;20360;-84
2024/02/17 08:49:34;;;;;;;14.63;7.53;;;;;;;;;;7414711;19;19918;-84
2024/02/17 08:52:19;;;;;;;13.38;7.32;;;;;;;;;;7408655;19;19914;-84
2024/02/17 08:55:06;;;;;;;11.55;6.50;;;;;;;;;;7415282;19;19918;-84
2024/02/17 08:57:50;;;;;;;11.38;6.13;;;;;;;;;;7411348;19;19966;-84
2024/02/17 09:00:36;;;;;;;12.95;6.50;;;;;;;;;;7408848;19;19935;-84
2024/02/17 09:03:22;;;;;;;13.13;5.50;;;;;;;;;;7415607;19;19919;-84
2024/02/17 09:06:09;;;;;;;10.00;5.70;;;;;;;;;;7414743;19;19914;-83
2024/02/17 09:08:54;;;;;;;11.45;5.95;;;;;;;;;;7415792;19;20012;-84
2024/02/17 09:11:40;;;;;;;11.77;6.43;;;;;;;;;;7416957;19;20122;-84
2024/02/17 09:14:25;;;;;;;13.57;6.45;;;;;;;;;;7416480;19;20309;-85
2024/02/17 09:17:09;;;;;;;13.40;6.78;;;;;;;;;;7418613;19;19943;-84
2024/02/17 09:19:56;;;;;;;7.78;5.00;;;;;;;;;;7419604;19;19929;-84
2024/02/17 09:22:45;;;;;;;9.57;5.18;;;;;;;;;;7417287;19;20278;-84
2024/02/17 09:25:29;;;;;;;11.02;5.00;;;;;;;;;;7417073;19;19998;-83
2024/02/17 09:28:18;;;;;;;7.72;4.80;;;;;;;;;;7413884;19;19919;-83
2024/02/17 09:31:07;;;;;;;9.00;4.93;;;;;;;;;;7416076;19;19918;-83
2024/02/17 09:33:51;;;;;;;8.93;5.78;;;;;;;;;;7416155;19;19941;-84
2024/02/17 09:36:36;;;;;;;8.10;4.78;;;;;;;;;;7414370;19;19986;-84
2024/02/17 09:39:26;;;;;;;8.98;4.60;;;;;;;;;;7417783;19;19921;-84
2024/02/17 09:42:13;;;;;;;7.55;3.95;;;;;;;;;;7413608;19;19911;-81
2024/02/17 09:44:58;;;;;;;9.80;4.90;;;;;;;;;;7412950;19;19919;-81
2024/02/17 09:47:46;;;;;;;9.40;4.15;;;;;;;;;;7412272;19;20246;-81
2024/02/17 09:50:31;;;;;;;8.20;5.32;;;;;;;;;;7415136;19;19918;-81
2024/02/17 09:53:16;;;;;;;8.18;3.97;;;;;;;;;;7413419;19;19914;-82
2024/02/17 09:56:05;;;;;;;7.13;3.88;;;;;;;;;;7413378;19;19918;-81
2024/02/17 09:58:51;;;;;;;11.15;5.47;;;;;;;;;;7410874;19;19933;-82
2024/02/17 10:01:35;;;;;;;7.50;4.63;;;;;;;;;;7412924;19;19914;-81
2024/02/17 10:04:20;;;;;;;8.55;4.85;;;;;;;;;;7415236;19;20329;-82
2024/02/17 10:07:10;;;;;;;7.60;4.47;;;;;;;;;;7414332;19;19986;-81
2024/02/17 10:09:55;;;;;;;11.20;4.53;;;;;;;;;;7412972;19;20310;-82
2024/02/17 10:12:51;;;;;;;7.68;4.45;;;;;;;;;;7411507;19;19920;-82
2024/02/17 10:15:35;;;;;;;8.55;4.20;;;;;;;;;;7413309;19;19937;-82
2024/02/17 10:18:20;;;;;;;8.00;4.10;;;;;;;;;;7414012;19;20404;-81
2024/02/17 10:21:04;;;;;;;7.15;4.05;;;;;;;;;;7415666;19;19990;-82
2024/02/17 10:23:56;;;;;;;7.30;4.47;;;;;;;;;;7416885;19;19923;-82
2024/02/17 10:26:45;;;;;;;7.63;3.60;;;;;;;;;;7415764;19;19922;-82
2024/02/17 10:29:32;;;;;;;8.55;3.38;;;;;;;;;;7415104;19;19918;-82
2024/02/17 10:32:21;;;;;;;5.68;2.80;;;;;;;;;;7417830;19;20330;-82
2024/02/17 10:35:08;;;;;;;4.50;2.70;;;;;;;;;;7414847;19;19922;-82
2024/02/17 10:37:52;;;;;;;3.85;2.33;;;;;;;;;;7412889;19;19929;-82
2024/02/17 10:40:37;;;;;;;5.28;2.78;;;;;;;;;;7416473;19;19925;-82
2024/02/17 10:43:23;;;;;;;5.88;2.13;;;;;;;;;;7418288;19;19933;-82
2024/02/17 10:46:15;;;;;;;5.63;2.65;;;;;;;;;;7417135;19;19923;-82
2024/02/17 10:49:04;;;;;;;4.55;2.60;;;;;;;;;;7414452;19;19914;-82
2024/02/17 10:51:59;;;;;;;7.45;2.65;;;;;;;;;;7429235;19;19926;-82
2024/02/17 10:54:51;;;;;;;7.03;3.00;;;;;;;;;;7439822;19;19907;-82
2024/02/17 10:57:41;;;;;;;5.88;2.55;;;;;;;;;;7413733;19;19918;-82
2024/02/17 11:00:28;;;;;;;4.50;2.10;;;;;;;;;;7411596;19;19915;-82
2024/02/17 11:03:17;;;;;;;5.40;2.55;;;;;;;;;;7412969;19;19922;-82
2024/02/17 11:06:05;;;;;;;4.07;2.35;;;;;;;;;;7413709;19;20333;-82
2024/02/17 11:08:52;;;;;;;3.85;2.17;;;;;;;;;;7413240;19;19934;-82
2024/02/17 11:11:39;;;;;;;4.88;2.70;;;;;;;;;;7410210;19;19922;-82
2024/02/17 11:14:43;;;;;;;5.50;2.20;;;;;;;;;;7415348;19;20337;-82
2024/02/17 11:17:44;;;;;;;7.65;3.35;;;;;;;;;;7414571;19;19923;-82
2024/02/17 11:20:31;;;;;;;3.72;2.50;;;;;;;;;;7413981;19;19915;-82
2024/02/17 11:23:16;;;;;;;4.25;2.00;;;;;;;;;;7414960;19;19955;-82
2024/02/17 11:26:00;;;;;;;6.32;2.70;;;;;;;;;;7414168;19;20559;-83
2024/02/17 11:28:46;;;;;;;6.65;2.80;;;;;;;;;;7413610;19;20602;-82
2024/02/17 11:31:31;;;;;;;5.82;3.20;;;;;;;;;;7413626;19;19918;-82
2024/02/17 11:34:15;;;;;;;3.85;2.60;;;;;;;;;;7414659;19;19921;-82
2024/02/17 11:37:05;;;;;;;5.05;3.00;;;;;;;;;;7403725;19;19922;-82
2024/02/17 11:39:53;;;;;;;6.18;3.75;;;;;;;;;;7414517;19;19911;-82
2024/02/17 11:42:39;;;;;;;7.15;2.90;;;;;;;;;;7413270;19;20296;-82
2024/02/17 11:45:27;;;;;;;7.15;3.20;;;;;;;;;;7415409;19;20424;-82
2024/02/17 11:48:17;;;;;;;8.00;3.15;;;;;;;;;;7412117;19;19922;-82
2024/02/17 11:51:21;;;;;;;6.47;3.70;;;;;;;;;;7412815;19;19925;-82
2024/02/17 11:54:18;;;;;;;6.22;3.42;;;;;;;;;;7411276;19;19915;-82
2024/02/17 11:57:04;;;;;;;7.10;4.00;;;;;;;;;;7412921;19;20325;-82
2024/02/17 11:59:52;;;;;;;8.35;3.95;;;;;;;;;;7410992;19;19989;-82
2024/02/17 12:02:39;;;;;;;5.82;3.70;;;;;;;;;;7416901;19;20317;-82
2024/02/17 12:05:26;;;;;;;8.07;3.70;;;;;;;;;;7416494;19;19970;-82
2024/02/17 12:08:10;;;;;;;5.72;3.58;;;;;;;;;;7414135;19;19941;-82
2024/02/17 12:11:00;;;;;;;8.70;3.75;;;;;;;;;;7413318;19;19911;-83
2024/02/17 12:13:44;;;;;;;6.18;2.97;;;;;;;;;;7415122;19;20905;-82
2024/02/17 12:16:29;;;;;;;9.00;4.50;;;;;;;;;;7413162;19;19902;-82
2024/02/17 12:19:28;;;;;;;12.45;5.90;;;;;;;;;;7409146;19;20293;-82
2024/02/17 12:22:14;;;;;;;10.13;6.35;;;;;;;;;;7414665;19;19918;-82
2024/02/17 12:24:58;;;;;;;8.98;6.03;;;;;;;;;;7435955;19;19915;-82
2024/02/17 12:27:50;;;;;;;12.48;5.93;;;;;;;;;;7443101;19;19921;-82
2024/02/17 12:30:50;;;;;;;10.93;5.57;;;;;;;;;;7442252;19;19914;-82
2024/02/17 12:33:58;;;;;;;11.40;6.40;;;;;;;;;;7418647;19;19922;-83
2024/02/17 12:40:17;;;;;;;4.10;3.03;;;;;;;;;;7411917;19;20344;-83
2024/02/17 12:43:07;;;;;;;7.65;2.88;;;;;;;;;;7411252;19;19933;-83
2024/02/17 12:45:54;;;;;;;3.97;2.00;;;;;;;;;;7409782;19;19923;-83
2024/02/17 12:48:55;;;;;;;2.65;2.25;;;;;;;;;;7411914;19;19922;-83
2024/02/17 12:52:07;;;;;;;6.38;2.05;;;;;;;;;;7411054;19;19914;-83
2024/02/17 12:55:14;;;;;;;3.22;1.42;;;;;;;;;;7414455;19;19923;-83
2024/02/17 12:58:14;;;;;;;4.00;2.35;;;;;;;;;;7409459;19;19930;-82
2024/02/17 13:00:58;;;;;;;4.40;1.95;;;;;;;;;;7413469;19;19926;-82
2024/02/17 13:03:45;;;;;;;6.55;2.75;;;;;;;;;;7413345;19;19902;-82
2024/02/17 13:06:37;;;;;;;7.38;2.20;;;;;;;;;;7411753;19;19914;-82
2024/02/17 13:09:24;;;;;;;4.95;2.10;;;;;;;;;;7419469;19;19952;-82
2024/02/17 13:12:12;;;;;;;5.97;2.40;;;;;;;;;;7441844;19;19910;-82
2024/02/17 13:14:59;;;;;;;3.80;2.15;;;;;;;;;;7417692;19;20291;-82
2024/02/17 13:17:47;;;;;;;3.22;1.85;;;;;;;;;;7413095;19;19902;-82
2024/02/17 13:20:31;;;;;;;6.30;2.17;;;;;;;;;;7410753;19;19998;-82
2024/02/17 13:23:20;;;;;;;4.03;2.47;;;;;;;;;;7409352;19;19919;-82
2024/02/17 13:26:07;;;;;;;4.43;2.03;;;;;;;;;;7412639;19;19978;-82
2024/02/17 13:28:54;;;;;;;6.80;1.92;;;;;;;;;;7409903;19;19914;-82
2024/02/17 13:31:45;;;;;;;6.43;3.25;;;;;;;;;;7410688;19;19918;-82
2024/02/17 13:34:29;;;;;;;4.00;2.35;;;;;;;;;;7413170;19;19906;-83
2024/02/17 13:37:16;;;;;;;5.38;1.83;;;;;;;;;;7417553;19;19922;-82
2024/02/17 13:40:00;;;;;;;5.28;2.45;;;;;;;;;;7415330;19;20345;-82
2024/02/17 13:42:48;;;;;;;6.20;2.30;;;;;;;;;;7419075;19;19914;-83
2024/02/17 13:45:35;;;;;;;7.00;2.70;;;;;;;;;;7415740;19;19922;-83
2024/02/17 13:48:27;;;;;;;3.20;2.25;;;;;;;;;;7418700;19;20364;-82
2024/02/17 13:51:13;;;;;;;6.25;2.85;;;;;;;;;;7416440;19;19923;-83
2024/02/17 13:53:57;;;;;;;5.18;2.50;;;;;;;;;;7418275;19;19914;-83
2024/02/17 13:56:44;;;;;;;7.22;2.78;;;;;;;;;;7414171;19;19937;-83
2024/02/17 13:59:29;;;;;;;4.85;2.65;;;;;;;;;;7416867;19;19922;-83
2024/02/17 14:02:15;;;;;;;5.15;2.95;;;;;;;;;;7416629;19;19919;-83
2024/02/17 14:05:05;;;;;;;4.95;2.65;;;;;;;;;;7415696;19;19947;-83
2024/02/17 14:07:49;;;;;;;3.92;2.60;;;;;;;;;;7414539;19;19945;-83
2024/02/17 14:10:40;;;;;;;9.50;3.03;;;;;;;;;;7414002;19;19915;-83
2024/02/17 14:13:25;;;;;;;5.43;3.00;;;;;;;;;;7414087;19;19929;-83
2024/02/17 14:16:14;;;;;;;9.50;3.38;;;;;;;;;;7412307;19;19926;-82
2024/02/17 14:18:58;;;;;;;5.88;2.80;;;;;;;;;;7414576;19;19922;-82
2024/02/17 14:21:46;;;;;;;6.97;3.55;;;;;;;;;;7410629;19;20003;-82
2024/02/17 14:24:32;;;;;;;8.45;4.00;;;;;;;;;;7414352;19;20520;-82
2024/02/17 14:27:17;;;;;;;8.27;4.38;;;;;;;;;;7412181;19;20323;-83
2024/02/17 14:30:04;;;;;;;6.70;3.30;;;;;;;;;;7412543;19;20608;-83
2024/02/17 14:32:48;;;;;;;7.72;3.58;;;;;;;;;;7414437;19;19926;-83
2024/02/17 14:35:33;;;;;;;8.43;3.47;;;;;;;;;;7411980;19;19910;-83
2024/02/17 14:38:22;;;;;;;7.90;3.88;;;;;;;;;;7413448;19;19930;-82
2024/02/17 14:41:09;;;;;;;8.00;3.17;;;;;;;;;;7416689;19;19914;-82
2024/02/17 14:43:56;;;;;;;6.28;3.15;;;;;;;;;;7414480;19;20005;-82
2024/02/17 14:46:41;;;;;;;6.70;3.85;;;;;;;;;;7414902;19;19942;-82
2024/02/17 14:49:28;;;;;;;7.88;3.08;;;;;;;;;;7413605;19;19918;-82
2024/02/17 14:52:12;;;;;;;8.07;3.15;;;;;;;;;;7416032;19;19914;-82
2024/02/17 14:54:59;;;;;;;6.55;3.28;;;;;;;;;;7416897;19;20369;-83
2024/02/17 14:57:47;;;;;;;6.85;3.30;;;;;;;;;;7413230;19;19925;-82
2024/02/17 15:00:34;;;;;;;6.85;3.33;;;;;;;;;;7414662;19;19922;-82
2024/02/17 15:03:23;;;;;;;8.00;3.35;;;;;;;;;;7414093;19;19929;-82
2024/02/17 15:06:07;;;;;;;4.82;3.00;;;;;;;;;;7414336;19;20003;-82
2024/02/17 15:08:53;;;;;;;8.13;2.95;;;;;;;;;;7413784;19;19994;-82
2024/02/17 15:11:40;;;;;;;8.32;3.47;;;;;;;;;;7414625;19;19919;-82
2024/02/17 15:14:24;;;;;;;4.13;2.42;;;;;;;;;;7414055;19;20040;-82
2024/02/17 15:17:11;;;;;;;8.80;2.97;;;;;;;;;;7407633;19;19979;-82
2024/02/17 15:19:59;;;;;;;3.95;2.65;;;;;;;;;;7411785;19;19919;-82
2024/02/17 15:22:43;;;;;;;4.85;2.33;;;;;;;;;;7414876;19;19915;-82
2024/02/17 15:25:28;;;;;;;4.78;2.22;;;;;;;;;;7413288;19;19918;-82
2024/02/17 15:28:18;;;;;;;4.20;2.22;;;;;;;;;;7423313;19;19914;-82
2024/02/17 15:31:05;;;;;;;4.78;1.90;;;;;;;;;;7443039;19;19927;-82
2024/02/17 15:33:54;;;;;;;3.08;1.77;;;;;;;;;;7432749;19;19974;-82
2024/02/17 15:36:43;;;;;;;4.68;1.98;;;;;;;;;;7417073;19;19915;-82
2024/02/17 15:39:33;;;;;;;3.13;1.98;;;;;;;;;;7415406;19;19922;-82
2024/02/17 15:45:12;;;;;;;3.13;1.92;;;;;;;;;;7403726;19;19914;-82
2024/02/17 15:47:58;;;;;;;5.30;2.10;;;;;;;;;;7415702;19;19918;-83
2024/02/17 15:50:46;;;;;;;5.03;2.05;;;;;;;;;;7416269;19;19944;-83
2024/02/17 15:53:33;;;;;;;4.20;2.08;;;;;;;;;;7417798;19;19915;-83
2024/02/17 15:56:20;;;;;;;3.83;1.92;;;;;;;;;;7411630;19;19919;-83
2024/02/17 15:59:08;;;;;;;4.97;2.40;;;;;;;;;;7417722;19;19914;-83
2024/02/17 16:01:58;;;;;;;4.00;2.05;;;;;;;;;;7415803;19;19963;-83
2024/02/17 16:04:42;;;;;;;3.67;2.13;;;;;;;;;;7416601;19;19986;-83
2024/02/17 16:07:30;;;;;;;4.28;1.92;;;;;;;;;;7414301;19;19954;-82
2024/02/17 16:10:19;;;;;;;3.95;2.30;;;;;;;;;;7415666;19;19918;-83
2024/02/17 16:13:07;;;;;;;3.55;1.75;;;;;;;;;;7416230;19;19970;-82
2024/02/17 16:15:51;;;;;;;3.47;2.00;;;;;;;;;;7415687;19;19915;-83
2024/02/17 16:18:44;;;;;;;4.63;2.13;;;;;;;;;;7415477;19;19917;-83
2024/02/17 16:21:35;;;;;;;3.65;2.22;;;;;;;;;;7418224;19;19918;-83
2024/02/17 16:24:22;;;;;;;4.38;2.58;;;;;;;;;;7420363;19;19928;-83
2024/02/17 16:27:06;;;;;;;6.60;2.33;;;;;;;;;;7440168;19;19929;-83
2024/02/17 16:29:53;;;;;;;3.88;2.17;;;;;;;;;;7443357;19;19915;-83
2024/02/17 16:32:39;;;;;;;6.97;2.00;;;;;;;;;;7441231;19;19918;-83
2024/02/17 16:35:26;;;;;;;4.07;2.10;;;;;;;;;;7411992;19;19921;-83
2024/02/17 16:38:13;;;;;;;5.00;2.33;;;;;;;;;;7408000;19;19946;-82
2024/02/17 16:40:57;;;;;;;2.90;1.90;;;;;;;;;;7411353;19;19910;-83
2024/02/17 16:43:48;;;;;;;4.13;1.77;;;;;;;;;;7411993;19;20333;-83
2024/02/17 16:46:35;;;;;;;2.10;1.70;;;;;;;;;;7413322;19;19922;-83